Ardmore, OK

6:17 AM CST on February 06, 2016 (GMT -0600)
Ardmore Weather Live | | Change Station
CLOSE
Current Station
Personal Weather Station
Location: Ardmore, Ok
Elevation: 810 ft
Nearby Weather Stations

Elev 810 ft 34.15 °N, 97.11 °W | Updated 3 seconds ago

Overcast
Overcast
40.4 °F
Feels Like 40 °F
N
0.5
Wind Variable Wind from NE
Gusts 3.5 mph

Today
High -- | Low -- °F
--% Chance of Precip.
Yesterday
High -- | Low -- °F
Precip. -- in
Pressure 30.29 in
Visibility 10.0 miles
Clouds Overcast 3900 ft
Windchill 40 °F
Dew Point 35 °F
Humidity 82%
Rainfall 0.00 in
Snow Depth Not available.
7:22 AM 6:03 PM
Waning Crescent, 6% visible
METAR K1F0 061155Z AUTO 07005KT 10SM OVC039 05/01 A3029 RMK AO2
Pressure 30.29 in
Visibility 10.0 miles
Clouds Overcast 3900 ft
Windchill 40 °F
Dew Point 35 °F
Humidity 82%
Rainfall 0.00 in
Snow Depth Not available.
7:22 AM 6:03 PM
Waning Crescent, 6% visible
METAR K1F0 061155Z AUTO 07005KT 10SM OVC039 05/01 A3029 RMK AO2

10-Day Weather Forecast

Almanac

Astronomy

Feb. 06, 2016 Rise Set
Actual Time
Civil Twilight
Nautical Twilight
Astronomical Twilight
Moon
Length of Visible Light
Length of Day
Tomorrow will be .
, % of the Moon is Illuminated

Today's Extremes

State Highs State Lows

Community

WunderPhotos

Upload Photos

1,890,944 photos uploaded!

WunderBlog® & News

Nearby

Air Quality

  Air Quality AQ Index Pollutant
Not available.

Snow Depth

Station Depth Elevation

Earthquake Activity

City Distance Mag. Time & Date
Minimum magnitude displayed is 2.5.

Coastal Water Temperatures

Place Temperature

Stations

Nearby Weather Stations

Station Location Temp. Windchill Dew Point Humidity Wind Precip. Elev Updated Type
                   

Watches & Warnings

There are currently no watches in effect.